« ### RJNT log 201907 ### | トップページ | 定点 富山空港 2019/8/2 fri »

2019/08/01

中継 小松飛行場 2019/7/28 sun

尾道のブルーインパルス展示飛行からの帰路は、台風の影響で、牛蜜時に帰還となった。当日松島へ帰投予定のプルーインパルスも台風の影響で帰投が一日遅れ。ブルーはノンタンクでの飛行なので、中継に小松に立ち寄ることとなった。自衛艦「かが」で遊びすぎ、小松へ急行した。

RJNK 280300Z 29008KT 9999 FEW030 SCT130 BKN200 31/24 Q1012

20190728_rjnk_00bi265692

小松に到着したら、すでにアプローチに入って来た。

20190728_rjnk_01bi265692

#5 26-5692 T-4 11SQ BI5

20190728_rjnk_02bi265686

スプレッドした6番機も続きます。間に合ってよかった。

20190728_rjnk_03bi265686

#6 26-5686 T-4 11SQ BI6

20190728_rjnk_04bi

空輸ターミナル前にスポットイン

20190728_rjnk_05ja111a

ANA1173 RJNK-RJCC JA111A A321-211

20190728_rjnk_06b6432

CES557 ZSPD-RJNK B-6432 A319-115

RJNK 280400Z 28007KT 250V310 9999 FEW030 BKN200 32/23 Q1012

20190728_rjnk_07uh

他には記念硬貨コンビがエプロンに出ていました。

20190728_rjnk_08bi265692

しばしの休憩中

20190728_rjnk_09ja55an

JA55AN 朝のANA752で飛び立てなかったポンコツ

20190728_rjnk_10ja07rk

JTA36 ROAH-RJNK JA07RK B737-8Q3

20190728_rjnk_11ja07rk

20190728_rjnk_12ja07rk

暑さで・・ Give me!

20190728_rjnk_13b6432

CES558 RJNK-ZSPD B-6432 A319-115

RJNK 280400Z 28007KT 250V310 9999 FEW030 BKN200 32/23 Q1012

20190728_rjnk_14ja11rj

IBX86 RJFF-RJNK JA11RJ CRJ-702ER

20190728_rjnk_15ja11rj

20190728_rjnk_16bi

14時を廻りました

20190728_rjnk_17ja07rk

ジェィオーシャンさんも出発

20190728_rjnk_18fvc

水かけてー 

20190728_rjnk_19ja07rk

20190728_rjnk_20ja334j

JAL187 RJTT-RJNK JA334J B737-846

20190728_rjnk_21ja334j

とにかく暑い

20190728_rjnk_22bi265692

14:20 タクシーアウト

20190728_rjnk_23bi265686

最後の行程も気をつけて

20190728_rjnk_24bi

20190728_rjnk_25bi265692

#692

20190728_rjnk_26bi265686

#686

20190728_rjnk_27bi

ラインアップ

20190728_rjnk_28bi

スモーク この時だけでした

20190728_rjnk_29bi

フォーメーションテイクオフ

20190728_rjnk_30bi

お疲れ様

20190728_rjnk_31bi

早く仲間が帰ってくると、イイですね。

怒涛の尾道フライト追っかけは、これにて終幕。

 

|

« ### RJNT log 201907 ### | トップページ | 定点 富山空港 2019/8/2 fri »

小松飛行場」カテゴリの記事

BI」カテゴリの記事

コメント

コメントを書く



(ウェブ上には掲載しません)


コメントは記事投稿者が公開するまで表示されません。



« ### RJNT log 201907 ### | トップページ | 定点 富山空港 2019/8/2 fri »